Time;durP1;ratioP1;P1;durP2;ratioP2;P2;SDS_P1;SDS_P2;PMS_P1;PMS_P2;Temp;Humidity;BMP_temperature;BMP_pressure;BME280_temperature;BME280_humidity;BME280_pressure;Samples;Min_cycle;Max_cycle;Signal;HPM_P1;HPM_P2
2022/05/05 00:03:56;;;;;;;12.20;6.18;;;;;;;7.86;62.44;100753.78;8760854;32;20489;-72
2022/05/05 00:09:01;;;;;;;8.25;6.25;;;;;;;8.43;61.03;100753.63;8736296;32;20400;-72
2022/05/05 00:19:28;;;;;;;9.02;7.00;;;;;;;8.75;60.30;100750.63;8761924;32;20575;-72
2022/05/05 00:24:31;;;;;;;12.32;6.03;;;;;;;8.70;59.90;100755.47;8758725;32;20138;-72
2022/05/05 00:29:34;;;;;;;14.10;6.63;;;;;;;8.39;60.24;100752.09;8756796;32;20145;-72
2022/05/05 00:34:38;;;;;;;13.73;7.05;;;;;;;8.21;60.80;100746.13;8757939;32;20138;-72
2022/05/05 00:39:41;;;;;;;8.52;6.95;;;;;;;7.99;61.32;100759.19;8731648;32;20426;-72
2022/05/05 00:44:45;;;;;;;12.35;7.50;;;;;;;8.26;61.20;100745.84;8764986;32;20451;-72
2022/05/05 00:49:50;;;;;;;9.95;6.93;;;;;;;8.75;59.91;100739.91;8760456;32;20409;-72
2022/05/05 00:54:55;;;;;;;12.98;6.72;;;;;;;8.95;59.00;100731.38;8759736;32;20403;-72
2022/05/05 01:00:02;;;;;;;12.57;6.38;;;;;;;8.92;58.76;100742.31;8737380;32;20415;-72
2022/05/05 01:05:08;;;;;;;12.80;6.65;;;;;;;8.25;59.44;100757.50;8760857;32;20325;-72
2022/05/05 01:10:14;;;;;;;8.40;5.93;;;;;;;7.48;62.29;100765.06;8761677;32;20400;-72
2022/05/05 01:15:17;;;;;;;10.02;6.97;;;;;;;7.53;63.02;100760.28;8754519;32;20141;-72
2022/05/05 01:20:22;;;;;;;9.10;6.78;;;;;;;8.07;62.42;100768.44;8750446;32;20153;-72
2022/05/05 01:30:49;;;;;;;15.20;7.00;;;;;;;8.66;60.06;100761.97;8749464;32;20393;-72
2022/05/05 01:35:54;;;;;;;12.80;7.55;;;;;;;8.40;60.45;100767.22;8748619;32;20126;-72
2022/05/05 01:41:00;;;;;;;12.85;7.00;;;;;;;8.53;60.81;100765.47;8747527;32;20973;-72
2022/05/05 01:46:04;;;;;;;12.00;6.93;;;;;;;8.84;59.77;100776.81;8746059;32;20145;-72
2022/05/05 01:51:07;;;;;;;13.18;7.50;;;;;;;8.64;59.23;100785.31;8747368;32;20484;-72
2022/05/05 01:56:13;;;;;;;12.18;7.35;;;;;;;8.28;60.95;100784.94;8751885;32;20459;-72
2022/05/05 02:01:16;;;;;;;9.68;7.28;;;;;;;8.64;60.53;100782.63;8755247;32;21086;-72
2022/05/05 02:06:20;;;;;;;10.65;6.88;;;;;;;8.97;60.13;100780.38;8767254;32;20260;-72
2022/05/05 02:11:25;;;;;;;9.88;7.15;;;;;;;8.93;59.62;100776.16;8771750;32;20208;-71
2022/05/05 02:16:28;;;;;;;9.95;6.75;;;;;;;8.97;60.05;100785.72;8770849;32;20145;-72
2022/05/05 02:21:31;;;;;;;11.73;6.85;;;;;;;8.91;60.50;100778.09;8772589;32;20142;-71
2022/05/05 02:26:35;;;;;;;13.90;7.18;;;;;;;9.02;59.86;100788.06;8764281;32;20626;-71
2022/05/05 02:31:38;;;;;;;11.98;7.32;;;;;;;8.30;60.80;100793.72;8759181;32;20221;-71
2022/05/05 02:42:04;;;;;;;9.38;6.85;;;;;;;8.60;61.35;100782.84;8753575;32;20173;-71
2022/05/05 02:47:07;;;;;;;10.57;7.32;;;;;;;8.81;60.71;100777.88;8726343;32;20351;-72
2022/05/05 02:52:10;;;;;;;15.05;9.00;;;;;;;8.85;60.23;100778.50;8754400;32;20410;-72
2022/05/05 02:57:15;;;;;;;14.07;7.35;;;;;;;8.93;60.20;100783.34;8756441;32;20426;-73
2022/05/05 03:02:19;;;;;;;10.23;7.20;;;;;;;8.93;60.38;100784.22;8755278;32;20397;-72
2022/05/05 03:07:22;;;;;;;12.40;7.63;;;;;;;8.87;60.68;100776.59;8756363;32;20432;-72
2022/05/05 03:12:26;;;;;;;14.02;7.10;;;;;;;8.47;61.49;100784.59;8756386;32;20586;-72
2022/05/05 03:17:29;;;;;;;9.93;6.68;;;;;;;8.06;63.91;100787.25;8756637;32;20415;-72
2022/05/05 03:22:33;;;;;;;12.82;8.38;;;;;;;8.39;63.93;100786.88;8756588;32;20145;-72
2022/05/05 03:27:39;;;;;;;13.90;7.50;;;;;;;8.40;63.19;100791.31;8730020;32;20260;-72
2022/05/05 03:32:42;;;;;;;12.95;8.15;;;;;;;8.38;63.54;100777.16;8755247;27;20645;-74
2022/05/05 03:37:45;;;;;;;13.27;8.32;;;;;;;8.21;62.92;100794.31;8717587;32;20559;-74
2022/05/05 03:42:50;;;;;;;13.35;8.57;;;;;;;8.35;63.32;100788.06;8758979;32;20497;-74
2022/05/05 03:47:53;;;;;;;17.48;8.88;;;;;;;8.68;63.24;100785.00;8819375;32;20140;-75
2022/05/05 03:52:56;;;;;;;17.58;9.10;;;;;;;8.64;62.77;100793.34;8822048;32;20245;-75
2022/05/05 03:58:00;;;;;;;15.30;8.88;;;;;;;8.83;62.51;100792.03;8800295;32;20253;-74
2022/05/05 04:08:24;;;;;;;11.02;8.00;;;;;;;8.91;62.34;100807.56;8815582;32;20427;-75
2022/05/05 04:13:29;;;;;;;12.88;8.48;;;;;;;8.36;63.79;100813.84;8788510;32;20451;-73
2022/05/05 04:18:33;;;;;;;16.55;8.13;;;;;;;8.65;63.96;100817.34;8815090;32;20885;-75
2022/05/05 04:23:36;;;;;;;14.35;9.43;;;;;;;8.80;63.47;100811.00;8788046;32;20148;-75
2022/05/05 04:28:49;;;;;;;12.13;8.30;;;;;;;8.95;62.86;100821.63;8814913;32;20434;-74
2022/05/05 04:33:52;;;;;;;12.50;8.82;;;;;;;9.09;62.42;100829.59;8816628;32;20228;-74
2022/05/05 04:38:55;;;;;;;12.30;8.43;;;;;;;8.75;63.29;100836.34;8817353;32;21100;-73
2022/05/05 04:44:00;;;;;;;14.32;8.60;;;;;;;8.63;63.45;100839.84;8818784;32;20428;-74
2022/05/05 04:49:03;;;;;;;17.08;8.63;;;;;;;9.07;62.86;100836.88;8817479;32;20548;-74
2022/05/05 04:54:06;;;;;;;14.70;8.55;;;;;;;9.09;62.39;100844.81;8820040;32;21102;-74
2022/05/05 04:59:12;;;;;;;16.08;9.10;;;;;;;9.06;63.17;100845.88;8820182;32;20456;-74
2022/05/05 05:04:15;;;;;;;16.15;9.68;;;;;;;9.21;63.42;100850.19;8820219;32;20168;-74
2022/05/05 05:09:18;;;;;;;13.98;8.65;;;;;;;9.25;62.67;100848.19;8819539;32;20149;-74
2022/05/05 05:14:23;;;;;;;15.40;9.07;;;;;;;9.24;63.17;100863.41;8793280;32;20418;-74
2022/05/05 05:19:27;;;;;;;14.10;8.90;;;;;;;9.55;63.02;100868.50;8818586;32;20141;-74
2022/05/05 05:24:30;;;;;;;13.90;8.70;;;;;;;9.87;62.22;100877.88;8818960;32;21078;-74
2022/05/05 05:29:35;;;;;;;16.27;8.85;;;;;;;9.60;62.46;100877.06;8787107;32;20904;-74
2022/05/05 05:34:39;;;;;;;17.48;8.70;;;;;;;9.70;62.31;100881.66;8810170;32;20426;-74
2022/05/05 05:39:42;;;;;;;11.90;8.07;;;;;;;10.05;61.61;100882.91;8806048;32;20181;-74
2022/05/05 05:44:46;;;;;;;15.57;8.25;;;;;;;10.28;60.59;100884.78;8810121;32;20439;-74
2022/05/05 05:49:49;;;;;;;13.63;8.38;;;;;;;10.53;59.61;100893.75;8809719;32;20555;-74
2022/05/05 05:54:53;;;;;;;19.25;9.23;;;;;;;10.64;58.40;100899.22;8809610;32;20903;-74
2022/05/05 05:59:59;;;;;;;13.85;8.40;;;;;;;10.54;58.76;100898.16;8810978;32;20433;-74
2022/05/05 06:05:13;;;;;;;17.23;9.57;;;;;;;10.63;58.87;100900.16;8808492;32;20444;-74
2022/05/05 06:10:18;;;;;;;14.25;9.63;;;;;;;10.77;58.22;100908.06;8809172;32;21037;-74
2022/05/05 06:15:23;;;;;;;13.35;8.95;;;;;;;10.83;57.30;100910.34;8805980;32;20541;-74
2022/05/05 06:20:26;;;;;;;12.88;8.73;;;;;;;10.69;56.64;100918.53;8805776;32;20460;-74
2022/05/05 06:25:29;;;;;;;14.80;8.88;;;;;;;11.12;56.34;100915.38;8808745;32;20983;-75
2022/05/05 06:30:34;;;;;;;16.05;9.10;;;;;;;11.38;55.87;100926.00;8806615;32;20437;-74
2022/05/05 06:35:37;;;;;;;16.25;9.10;;;;;;;11.51;56.18;100918.72;8809648;32;20967;-75
2022/05/05 06:40:42;;;;;;;14.18;8.43;;;;;;;11.64;55.15;100927.56;8788653;32;20937;-74
2022/05/05 06:45:46;;;;;;;18.13;9.25;;;;;;;12.00;55.06;100931.06;8821498;32;20183;-74
2022/05/05 06:50:49;;;;;;;17.05;9.98;;;;;;;11.92;55.21;100934.34;8820031;32;20577;-74
2022/05/05 06:55:55;;;;;;;15.15;9.80;;;;;;;12.08;54.84;100925.94;8814920;32;20578;-74
2022/05/05 07:06:20;;;;;;;17.27;10.05;;;;;;;12.11;55.18;100941.84;8814689;32;20415;-74
2022/05/05 07:11:23;;;;;;;11.43;7.45;;;;;;;12.42;53.41;100942.13;8814075;32;20457;-74
2022/05/05 07:16:28;;;;;;;16.60;9.93;;;;;;;12.90;53.37;100944.53;8820236;32;20395;-74
2022/05/05 07:21:31;;;;;;;16.40;8.82;;;;;;;13.35;50.50;100947.09;8825921;32;20589;-74
2022/05/05 07:26:34;;;;;;;12.15;8.48;;;;;;;13.39;50.48;100951.28;8820108;32;20516;-74
2022/05/05 07:31:39;;;;;;;15.98;8.93;;;;;;;13.48;49.63;100949.66;8817349;32;20446;-74
2022/05/05 07:36:43;;;;;;;13.43;7.13;;;;;;;13.65;48.37;100953.59;8817971;32;20399;-73
2022/05/05 07:41:46;;;;;;;12.07;6.85;;;;;;;13.81;47.01;100948.59;8816115;32;20404;-74
2022/05/05 07:46:51;;;;;;;11.57;7.00;;;;;;;14.05;45.16;100947.50;8816697;32;20850;-75
2022/05/05 07:51:54;;;;;;;11.05;6.80;;;;;;;13.65;45.17;100951.75;8820838;32;20239;-75
2022/05/05 07:56:57;;;;;;;10.15;5.20;;;;;;;13.63;42.31;100953.75;8794101;32;20244;-75
2022/05/05 08:02:02;;;;;;;8.52;6.07;;;;;;;14.45;42.32;100957.53;8820063;32;20156;-76
2022/05/05 08:07:06;;;;;;;8.82;5.22;;;;;;;14.89;43.13;100960.81;8818892;32;20410;-75
2022/05/05 08:12:10;;;;;;;11.13;6.20;;;;;;;15.46;42.33;100961.91;8821005;32;20224;-76
2022/05/05 08:17:15;;;;;;;8.32;6.10;;;;;;;15.68;41.49;100964.31;8820717;32;20518;-75
2022/05/05 08:22:18;;;;;;;11.73;6.20;;;;;;;15.76;41.45;100960.91;8815535;32;20232;-75
2022/05/05 08:32:43;;;;;;;10.75;6.75;;;;;;;16.32;39.58;100970.09;8820230;32;20407;-74
2022/05/05 08:37:46;;;;;;;11.38;6.53;;;;;;;16.39;40.58;100981.19;8822086;32;20156;-75
2022/05/05 08:42:49;;;;;;;10.40;6.50;;;;;;;16.65;40.81;100982.25;8819708;32;20618;-75
2022/05/05 08:47:55;;;;;;;9.98;6.10;;;;;;;16.34;39.77;100981.63;8798850;32;20447;-75
2022/05/05 08:52:58;;;;;;;9.90;5.43;;;;;;;16.10;41.22;100985.69;8834541;32;20629;-75
2022/05/05 08:58:02;;;;;;;8.90;6.00;;;;;;;16.03;40.98;100995.38;8826387;32;20424;-75
2022/05/05 09:03:09;;;;;;;11.93;6.65;;;;;;;16.55;40.09;100997.69;8802452;32;20656;-76
2022/05/05 09:08:12;;;;;;;10.82;6.03;;;;;;;16.94;41.30;100998.38;8823625;32;20137;-75
2022/05/05 09:13:22;;;;;;;9.93;6.05;;;;;;;16.75;38.12;100995.75;8819849;32;21069;-76
2022/05/05 09:18:30;;;;;;;13.35;6.03;;;;;;;15.89;41.06;101002.09;8818225;32;20141;-76
2022/05/05 09:23:36;;;;;;;8.77;5.10;;;;;;;15.45;40.78;100998.97;8814968;32;20552;-74
2022/05/05 09:28:39;;;;;;;8.13;4.85;;;;;;;16.70;39.31;101000.75;8811398;32;20705;-75
2022/05/05 09:33:45;;;;;;;8.00;4.75;;;;;;;16.38;38.33;100998.47;8814498;32;20136;-76
2022/05/05 09:38:53;;;;;;;6.20;4.40;;;;;;;17.42;36.61;101004.53;8815304;32;20403;-76
2022/05/05 09:43:58;;;;;;;8.40;5.22;;;;;;;17.09;37.70;100997.88;8813409;32;20417;-76
2022/05/05 09:49:12;;;;;;;6.60;4.55;;;;;;;17.24;38.14;101001.78;8811301;32;20412;-76
2022/05/05 09:59:40;;;;;;;8.90;5.40;;;;;;;18.85;35.96;101003.44;8813274;32;20463;-76
2022/05/05 10:04:51;;;;;;;8.02;4.82;;;;;;;19.13;34.87;101004.88;8813678;32;20527;-74
2022/05/05 10:09:54;;;;;;;9.75;4.43;;;;;;;18.32;35.68;101017.06;8811911;32;20256;-76
2022/05/05 10:14:58;;;;;;;6.88;4.78;;;;;;;17.29;36.47;101014.91;8812978;32;20157;-76
2022/05/05 10:20:05;;;;;;;7.65;4.50;;;;;;;17.77;37.39;101011.84;8811590;32;20393;-76
2022/05/05 10:25:15;;;;;;;6.38;3.60;;;;;;;16.61;37.58;101018.78;8811918;32;20156;-75
2022/05/05 10:30:34;;;;;;;5.63;3.90;;;;;;;17.10;37.02;101008.56;8808202;32;20140;-74
2022/05/05 10:35:47;;;;;;;6.25;3.85;;;;;;;18.89;35.92;101002.91;8805067;32;20444;-75
2022/05/05 10:40:51;;;;;;;6.43;4.80;;;;;;;20.01;34.10;100993.44;8805468;32;20204;-75
2022/05/05 10:45:54;;;;;;;7.53;4.25;;;;;;;20.34;32.06;100999.72;8804874;32;20161;-75
2022/05/05 10:51:08;;;;;;;4.47;3.45;;;;;;;19.91;32.51;101003.66;8816610;32;20144;-75
2022/05/05 10:56:29;;;;;;;8.63;4.80;;;;;;;20.18;33.11;100998.88;8831836;32;20943;-75
2022/05/05 11:02:01;;;;;;;6.10;3.78;;;;;;;20.09;31.42;101000.75;8834548;32;20504;-75
2022/05/05 11:07:38;;;;;;;7.95;3.67;;;;;;;19.30;33.86;101000.31;8820611;32;20228;-76
2022/05/05 11:12:41;;;;;;;5.85;3.80;;;;;;;20.72;33.35;100993.66;8819061;32;20172;-75
2022/05/05 11:23:21;;;;;;;3.35;3.05;;;;;;;21.02;29.92;100986.53;8819348;32;20597;-75
2022/05/05 11:28:24;;;;;;;6.68;3.50;;;;;;;20.93;30.58;100998.53;8825066;32;20532;-76
2022/05/05 11:33:27;;;;;;;5.10;3.00;;;;;;;20.87;32.48;101000.09;8833513;32;20513;-76
2022/05/05 11:38:32;;;;;;;8.77;3.55;;;;;;;20.92;30.03;100997.66;8826480;32;20502;-76
2022/05/05 11:48:59;;;;;;;5.70;3.38;;;;;;;22.43;30.43;100988.00;8821455;32;20433;-75
2022/05/05 11:54:07;;;;;;;5.07;3.70;;;;;;;22.68;27.86;100994.09;8822508;32;20121;-75
2022/05/05 12:04:36;;;;;;;4.03;3.45;;;;;;;23.13;29.00;100987.53;8824169;32;20655;-75
2022/05/05 12:09:41;;;;;;;5.75;3.22;;;;;;;22.89;29.64;100991.44;8837174;32;20571;-76
2022/05/05 12:14:47;;;;;;;4.28;2.95;;;;;;;22.47;29.00;100995.69;8836933;32;20962;-75
2022/05/05 12:19:52;;;;;;;4.45;3.55;;;;;;;20.86;30.41;100992.91;8836624;32;20244;-75
2022/05/05 12:25:04;;;;;;;7.20;4.00;;;;;;;21.93;28.94;100992.28;8840723;32;20399;-75
2022/05/05 12:30:09;;;;;;;4.28;2.80;;;;;;;22.39;30.37;100979.34;8840766;32;20633;-75
2022/05/05 12:35:12;;;;;;;4.63;3.00;;;;;;;23.30;28.98;100979.09;8671541;32;20140;-76
2022/05/05 12:40:18;;;;;;;4.55;2.40;;;;;;;23.78;26.96;100984.84;8616763;33;20138;-75
2022/05/05 12:45:24;;;;;;;7.00;3.40;;;;;;;23.82;27.77;100981.53;8661119;33;20698;-75
2022/05/05 12:50:34;;;;;;;5.50;1.70;;;;;;;22.55;28.58;100981.91;8632617;33;20379;-75
2022/05/05 13:01:00;;;;;;;4.25;1.90;;;;;;;24.46;26.80;100982.47;8651630;33;20924;-75
2022/05/05 13:06:18;;;;;;;3.15;1.80;;;;;;;23.70;26.67;100980.34;8589419;33;20745;-75
2022/05/05 13:11:27;;;;;;;2.58;1.90;;;;;;;23.52;25.83;100980.78;8618161;33;20569;-75
2022/05/05 13:16:33;;;;;;;1.98;1.45;;;;;;;24.10;24.44;100975.22;8547676;33;20455;-76
2022/05/05 13:21:38;;;;;;;3.50;2.50;;;;;;;23.49;25.51;100974.88;8521213;33;20552;-76
2022/05/05 13:26:45;;;;;;;2.58;1.70;;;;;;;24.11;25.86;100968.69;8551115;33;20419;-75
2022/05/05 13:31:48;;;;;;;1.60;1.50;;;;;;;23.29;25.04;100981.00;8558321;33;21137;-75
2022/05/05 13:36:52;;;;;;;1.88;1.52;;;;;;;22.00;26.62;100974.09;8553080;33;20444;-75
2022/05/05 13:41:56;;;;;;;1.88;1.45;;;;;;;22.49;27.43;100977.22;8531265;33;20644;-75
2022/05/05 13:46:59;;;;;;;2.22;1.50;;;;;;;23.53;25.54;100976.16;8548681;33;20547;-75
2022/05/05 13:52:02;;;;;;;2.83;1.70;;;;;;;23.03;25.26;100967.78;8555369;33;21037;-74
2022/05/05 13:57:14;;;;;;;1.58;1.45;;;;;;;22.74;25.74;100975.03;8604491;33;20425;-76
2022/05/05 14:02:17;;;;;;;2.45;1.55;;;;;;;22.62;25.70;100976.53;8585447;33;20165;-74
2022/05/05 14:12:10;;;;;;;1.65;1.40;;;;;;;22.81;27.07;100971.50;8593162;33;20408;-75
2022/05/05 14:12:46;;;;;;;3.33;1.80;;;;;;;20.87;29.50;100978.25;8596072;33;21003;-75
2022/05/05 14:17:49;;;;;;;2.75;1.60;;;;;;;21.53;29.58;100983.31;8605992;33;20250;-76
2022/05/05 14:22:52;;;;;;;4.30;1.77;;;;;;;20.87;30.69;100980.09;8627472;33;20188;-74
2022/05/05 14:27:56;;;;;;;1.52;1.30;;;;;;;21.31;29.14;100977.69;8619156;33;20226;-75
2022/05/05 14:33:00;;;;;;;1.27;1.17;;;;;;;20.74;28.44;100984.25;8610718;33;20412;-75
2022/05/05 14:38:03;;;;;;;2.72;1.00;;;;;;;20.94;28.40;100987.41;8604112;33;20239;-74
2022/05/05 14:43:07;;;;;;;2.53;1.40;;;;;;;20.66;30.26;100980.72;8606231;33;20179;-74
2022/05/05 14:48:11;;;;;;;1.58;1.05;;;;;;;20.75;29.95;100985.94;8604854;33;20887;-74
2022/05/05 14:53:14;;;;;;;2.63;1.55;;;;;;;20.76;30.58;100975.88;8607339;33;20677;-74
2022/05/05 14:58:18;;;;;;;1.50;1.40;;;;;;;20.18;29.89;100977.88;8605568;33;20580;-75
2022/05/05 15:03:21;;;;;;;2.03;1.30;;;;;;;20.27;29.32;100979.59;8611054;33;21584;-75
2022/05/05 15:08:25;;;;;;;2.63;1.48;;;;;;;20.24;29.07;100979.94;8613623;33;20428;-75
2022/05/05 15:13:29;;;;;;;1.67;1.30;;;;;;;20.53;30.69;100975.81;8604451;33;20232;-76
2022/05/05 15:18:32;;;;;;;3.22;1.40;;;;;;;20.12;29.99;100982.16;8600707;33;20443;-75
2022/05/05 15:23:36;;;;;;;1.50;1.40;;;;;;;19.40;32.67;100983.84;8586683;33;20522;-75
2022/05/05 15:28:41;;;;;;;2.33;1.45;;;;;;;19.12;33.36;100975.09;8609885;33;20163;-76
2022/05/05 15:33:45;;;;;;;4.80;1.33;;;;;;;18.43;33.97;100985.13;8591729;33;20628;-76
2022/05/05 15:38:50;;;;;;;2.42;1.50;;;;;;;18.05;35.00;100990.00;8604947;27;1109570;-72
2022/05/05 15:43:54;;;;;;;1.90;1.45;;;;;;;18.30;34.59;100994.59;8630597;33;20505;-72
2022/05/05 15:48:57;;;;;;;2.25;1.40;;;;;;;18.36;35.50;100990.38;8624229;33;20454;-72
2022/05/05 15:54:01;;;;;;;1.85;1.58;;;;;;;18.55;34.48;100994.75;8658661;32;20405;-72
2022/05/05 15:59:05;;;;;;;2.85;1.42;;;;;;;18.88;33.45;100987.59;8673917;32;20241;-72
2022/05/05 16:04:09;;;;;;;3.22;1.65;;;;;;;20.02;33.81;100984.25;8632830;33;20419;-72
2022/05/05 16:09:12;;;;;;;2.00;1.70;;;;;;;21.45;31.13;100979.63;8629510;33;20472;-71
2022/05/05 16:14:16;;;;;;;3.13;1.65;;;;;;;20.68;32.56;100976.78;8644215;33;20509;-71
2022/05/05 16:19:19;;;;;;;3.22;2.00;;;;;;;19.88;33.07;100965.81;8652171;33;20945;-71
2022/05/05 16:30:07;;;;;;;8.20;2.08;;;;;;;21.09;30.95;100973.91;8655025;33;20993;-71
2022/05/05 16:35:11;;;;;;;1.70;1.58;;;;;;;22.38;28.30;100968.56;8631240;33;20294;-72
2022/05/05 16:40:18;;;;;;;1.50;1.40;;;;;;;21.25;31.19;100989.31;8595400;33;20427;-72
2022/05/05 16:45:24;;;;;;;1.48;1.38;;;;;;;20.90;30.14;100982.47;8597981;33;20573;-72
2022/05/05 16:50:28;;;;;;;1.52;1.20;;;;;;;20.79;29.94;100979.13;8629329;33;20940;-72
2022/05/05 16:55:31;;;;;;;1.95;1.40;;;;;;;20.40;30.80;100981.78;8638946;33;20666;-72
2022/05/05 17:00:36;;;;;;;1.30;1.20;;;;;;;21.86;29.38;100989.44;8637026;33;20494;-72
2022/05/05 17:05:39;;;;;;;2.88;1.60;;;;;;;24.21;27.19;100990.28;8637240;33;20162;-72
2022/05/05 17:10:42;;;;;;;4.80;1.75;;;;;;;27.98;23.06;100975.88;8639911;33;20225;-72
2022/05/05 17:15:47;;;;;;;2.42;1.52;;;;;;;28.80;21.98;100979.28;8635634;33;20448;-72
2022/05/05 17:20:50;;;;;;;4.15;1.70;;;;;;;29.13;21.74;100986.34;8638838;33;20283;-72
2022/05/05 17:25:53;;;;;;;3.72;2.20;;;;;;;28.65;21.86;100990.72;8629416;33;20231;-72
2022/05/05 17:30:57;;;;;;;2.42;1.80;;;;;;;27.77;22.41;100988.94;8609836;33;20262;-72
2022/05/05 17:36:00;;;;;;;4.10;2.65;;;;;;;24.23;25.62;100996.44;8605008;33;20427;-72
2022/05/05 17:41:04;;;;;;;8.98;2.92;;;;;;;20.83;29.79;101006.06;8622190;33;20463;-71
2022/05/05 17:51:30;;;;;;;2.95;2.10;;;;;;;18.91;33.32;101021.81;8635480;33;20456;-71
2022/05/05 17:56:33;;;;;;;3.10;1.90;;;;;;;18.67;33.85;101025.22;8636536;33;20208;-72
2022/05/05 18:01:38;;;;;;;4.40;1.70;;;;;;;18.54;33.82;101036.53;8609105;33;20995;-71
2022/05/05 18:06:41;;;;;;;6.97;2.00;;;;;;;18.35;34.37;101037.66;8610764;33;20152;-71
2022/05/05 18:11:44;;;;;;;3.00;2.00;;;;;;;18.13;35.46;101044.44;8609864;33;20215;-71
2022/05/05 18:16:48;;;;;;;2.15;1.73;;;;;;;17.98;35.76;101043.28;8604062;33;20191;-71
2022/05/05 18:21:51;;;;;;;3.10;1.70;;;;;;;17.78;36.14;101048.00;8609604;33;20418;-71
2022/05/05 18:26:54;;;;;;;3.60;1.85;;;;;;;17.50;37.32;101050.78;8608407;33;20496;-71
2022/05/05 18:32:07;;;;;;;2.70;1.50;;;;;;;17.28;37.69;101053.91;8614026;33;20424;-71
2022/05/05 18:37:11;;;;;;;2.50;1.88;;;;;;;17.18;37.34;101062.97;8604014;33;20569;-71
2022/05/05 18:42:14;;;;;;;4.88;2.17;;;;;;;17.20;36.93;101066.41;8609623;33;21131;-71
2022/05/05 18:47:19;;;;;;;2.38;1.77;;;;;;;17.04;38.45;101055.31;8591676;33;20424;-71
2022/05/05 18:52:23;;;;;;;2.67;1.80;;;;;;;16.88;38.93;101050.53;8610636;33;20164;-72
2022/05/05 18:57:27;;;;;;;2.40;1.70;;;;;;;16.70;38.85;101049.59;8619212;33;20227;-72
2022/05/05 19:02:31;;;;;;;2.33;1.70;;;;;;;16.47;39.32;101059.94;8612119;33;20156;-72
2022/05/05 19:07:35;;;;;;;6.82;1.90;;;;;;;16.29;40.07;101067.97;8628535;33;20147;-72
2022/05/05 19:12:38;;;;;;;2.35;1.90;;;;;;;16.07;40.10;101074.53;8624791;33;20467;-71
2022/05/05 19:17:43;;;;;;;2.70;2.10;;;;;;;15.51;40.19;101078.78;8631620;33;20416;-71
2022/05/05 19:22:46;;;;;;;4.68;1.92;;;;;;;15.26;40.22;101091.78;8634441;33;20170;-71
2022/05/05 19:27:49;;;;;;;2.55;2.00;;;;;;;15.40;40.43;101095.13;8631795;33;20302;-71
2022/05/05 19:32:53;;;;;;;3.08;2.03;;;;;;;15.45;40.60;101095.56;8628662;33;20684;-71
2022/05/05 19:38:04;;;;;;;3.00;2.10;;;;;;;15.50;40.50;101108.72;8604245;33;20471;-70
2022/05/05 19:43:08;;;;;;;2.13;1.83;;;;;;;15.44;40.35;101110.97;8630630;33;20261;-70
2022/05/05 19:48:13;;;;;;;4.90;2.30;;;;;;;15.37;40.56;101111.66;8635536;33;21294;-71
2022/05/05 19:53:16;;;;;;;3.13;2.83;;;;;;;15.38;41.03;101118.78;8638842;33;20166;-71
2022/05/05 20:03:42;;;;;;;3.13;2.30;;;;;;;15.39;40.85;101132.19;8586976;33;20592;-71
2022/05/05 20:08:45;;;;;;;3.13;2.42;;;;;;;15.23;42.38;101135.38;8641522;33;20151;-72
2022/05/05 20:13:54;;;;;;;5.18;2.80;;;;;;;15.17;42.85;101135.91;8641698;33;20267;-71
2022/05/05 20:19:00;;;;;;;5.00;2.60;;;;;;;15.07;43.00;101136.88;8624527;33;20155;-71
2022/05/05 20:24:08;;;;;;;6.60;3.90;;;;;;;14.85;41.96;101140.59;8611849;33;20481;-71
2022/05/05 20:29:12;;;;;;;5.28;3.10;;;;;;;14.60;42.47;101146.28;8635626;33;20151;-71
2022/05/05 20:34:18;;;;;;;3.08;2.75;;;;;;;14.70;42.87;101156.28;8624672;33;20822;-72
2022/05/05 20:39:22;;;;;;;4.35;2.80;;;;;;;14.77;43.69;101149.38;8604992;32;20405;-70
2022/05/05 20:44:25;;;;;;;3.33;2.75;;;;;;;14.61;42.82;101163.34;8673113;32;20651;-71
2022/05/05 20:49:31;;;;;;;3.85;2.80;;;;;;;14.47;42.58;101167.25;8631313;32;20269;-71
2022/05/05 20:54:35;;;;;;;2.90;2.60;;;;;;;14.29;42.83;101164.25;8679468;32;20858;-71
2022/05/05 20:59:38;;;;;;;4.72;2.83;;;;;;;14.40;43.16;101165.19;8694156;32;20284;-71
2022/05/05 21:04:42;;;;;;;3.10;2.78;;;;;;;14.54;42.88;101171.16;8688662;32;20134;-71
2022/05/05 21:09:45;;;;;;;4.50;2.97;;;;;;;14.54;43.59;101175.72;8660060;33;20468;-71
2022/05/05 21:14:48;;;;;;;3.25;2.72;;;;;;;14.29;44.21;101182.28;8658766;33;20557;-70
2022/05/05 21:30:33;;;;;;;2.70;2.42;;;;;;;13.55;45.11;101171.31;8685828;32;20494;-71
2022/05/05 21:35:38;;;;;;;3.13;2.40;;;;;;;13.57;45.39;101174.75;8691478;33;20448;-73
2022/05/05 21:40:47;;;;;;;2.70;2.40;;;;;;;13.33;45.54;101174.84;8652917;27;20698;-73
2022/05/05 21:45:53;;;;;;;2.65;2.03;;;;;;;13.33;45.81;101177.53;8618016;33;21016;-73
2022/05/05 21:50:58;;;;;;;3.47;2.42;;;;;;;13.21;46.67;101193.75;8607716;33;20462;-71
2022/05/05 21:56:01;;;;;;;5.25;2.42;;;;;;;13.07;47.13;101199.38;8605383;33;20457;-71
2022/05/05 22:01:04;;;;;;;3.75;3.15;;;;;;;13.03;47.16;101200.59;8610505;33;20415;-71
2022/05/05 22:06:09;;;;;;;4.32;3.25;;;;;;;13.07;47.58;101190.44;8616380;33;20521;-72
2022/05/05 22:11:12;;;;;;;4.75;3.60;;;;;;;13.03;47.71;101200.59;8637315;33;20554;-72
2022/05/05 22:16:15;;;;;;;4.38;3.25;;;;;;;13.05;48.11;101204.03;8630857;33;20441;-71
2022/05/05 22:21:20;;;;;;;4.07;3.30;;;;;;;12.98;48.43;101195.56;8608864;33;20403;-72
2022/05/05 22:26:23;;;;;;;5.68;3.90;;;;;;;12.88;48.92;101199.09;8605139;33;20230;-72
2022/05/05 22:31:26;;;;;;;5.40;3.40;;;;;;;12.86;48.57;101198.34;8601250;33;20179;-72
2022/05/05 22:36:31;;;;;;;3.50;3.20;;;;;;;12.75;49.02;101201.88;8606301;33;20228;-72
2022/05/05 22:41:52;;;;;;;5.30;3.50;;;;;;;12.59;49.61;101210.31;8608796;33;20441;-73
2022/05/05 22:46:55;;;;;;;5.93;3.33;;;;;;;12.41;50.53;101209.88;8612004;33;20195;-73
2022/05/05 22:52:01;;;;;;;6.00;3.65;;;;;;;12.38;50.67;101213.66;8619609;33;20420;-73
2022/05/05 22:57:05;;;;;;;5.22;3.38;;;;;;;12.28;51.15;101218.00;8606657;33;20250;-73
2022/05/05 23:02:08;;;;;;;5.93;3.95;;;;;;;12.06;51.93;101215.16;8605214;33;20150;-73
2022/05/05 23:07:13;;;;;;;5.60;3.92;;;;;;;11.93;52.56;101220.63;8604274;33;20504;-73
2022/05/05 23:12:16;;;;;;;5.78;3.70;;;;;;;11.98;52.75;101217.56;8603528;33;20197;-73
2022/05/05 23:17:19;;;;;;;8.60;4.00;;;;;;;11.94;52.95;101216.94;8604176;33;20643;-74
2022/05/05 23:22:24;;;;;;;6.50;3.80;;;;;;;11.87;52.87;101221.03;8601085;33;20520;-73
2022/05/05 23:27:27;;;;;;;5.13;3.78;;;;;;;11.78;53.13;101224.41;8581968;33;20148;-72
2022/05/05 23:32:30;;;;;;;8.40;4.45;;;;;;;11.77;53.21;101217.31;8582405;33;20542;-72
2022/05/05 23:37:35;;;;;;;6.03;4.10;;;;;;;11.72;53.53;101223.88;8588659;33;20771;-72
2022/05/05 23:42:38;;;;;;;8.18;4.55;;;;;;;11.64;54.09;101217.34;8578303;33;20914;-72
2022/05/05 23:47:41;;;;;;;7.20;4.47;;;;;;;11.43;54.04;101217.91;8577155;33;20507;-73
2022/05/05 23:52:48;;;;;;;8.93;4.53;;;;;;;11.06;55.13;101230.38;8602069;33;20549;-73
2022/05/05 23:57:51;;;;;;;5.60;4.70;;;;;;;11.26;55.37;101223.63;8610991;33;20242;-72
